Etusivu
METAR-TAF:

METAR-TAF

Lentoasemat :

Öljynporauslautta

Euro, Alankomaat

Leveyspiiri: 51-59-52N, Pituuspiiri: 3-16-30E, korkeus merenpinnasta: 18 m

Tämänhetkinen sää

Tämä raportti tehtiin 15 minuuttia sitten, kello 12.25 UTC
Tuuli 43 kn etelästä/lounaasta
Lämpötila 10°C
Kosteus 93%
Ilmanpaine 1007 hPa
Näkyvyys: 8000 m

METAR: EHSA 241225Z AUTO 21043KT 8000 ///////// 10/09 Q1007 W06/H25

Aika: 13:40 (12:40 UTC)


TAF: puuttuu

Säähavainnot ja -ennusteet yli 4000 lentoasemalta (METAR- ja TAF-raportit).

Käytössä olevat sääasemat on merkitty karttaan keltaisilla ja punaisilla pisteillä.

Aseta hiiri pisteen päälle nähdäksesi sääaseman nimen.

Klikkaa sitten nähdäksesi säähavainnot ja -ennusteet.

Kartan vaihtaminen: klikkaa mustalla rastilla varustettuja vihreitä pisteitä, niin voit zoomata sisään; viivalla varustettua vihreää pistettä, niin voit zoomata ulos tai vihreitä nuolia, niin pääset viereisille kartoille.


METAR-TAF: